Time;durP1;ratioP1;P1;durP2;ratioP2;P2;SDS_P1;SDS_P2;PMS_P1;PMS_P2;Temp;Humidity;BMP_temperature;BMP_pressure;BME280_temperature;BME280_humidity;BME280_pressure;Samples;Min_cycle;Max_cycle;Signal;HPM_P1;HPM_P2
2022/04/16 09:47:13;;;;;;;4.75;3.97;;;10.80;99.90;;;;;;5090698;28;20549;-63
2022/04/16 09:49:40;;;;;;;5.57;4.30;;;10.80;99.90;;;;;;5090665;28;20163;-65
2022/04/16 09:52:06;;;;;;;3.90;3.67;;;10.90;99.90;;;;;;5090670;28;20171;-65
2022/04/16 09:54:33;;;;;;;4.07;3.78;;;11.00;99.90;;;;;;5090770;28;20196;-65
2022/04/16 09:57:02;;;;;;;4.53;3.95;;;11.10;99.90;;;;;;5090644;28;20172;-65
2022/04/16 09:59:33;;;;;;;3.88;3.60;;;11.20;99.90;;;;;;5090583;28;20213;-65
2022/04/16 10:02:02;;;;;;;4.32;3.97;;;11.20;99.90;;;;;;5090505;28;20274;-65
2022/04/16 10:04:29;;;;;;;3.80;3.60;;;11.30;99.90;;;;;;5090424;28;20636;-65
2022/04/16 10:06:55;;;;;;;4.75;4.45;;;11.30;99.90;;;;;;5090444;28;20609;-65
2022/04/16 10:09:24;;;;;;;4.30;4.00;;;11.30;99.90;;;;;;5090507;28;20199;-65
2022/04/16 10:15:18;;;;;;;5.78;5.22;;;11.40;99.90;;;;;;5090567;28;20182;-65
2022/04/16 10:17:52;;;;;;;5.45;5.03;;;11.40;99.90;;;;;;5090280;28;20171;-65
2022/04/16 10:20:22;;;;;;;6.53;4.68;;;11.50;99.90;;;;;;5090192;28;20175;-65
2022/04/16 10:22:58;;;;;;;5.07;4.78;;;11.50;99.90;;;;;;5090178;28;20255;-65
2022/04/16 10:25:35;;;;;;;3.95;3.75;;;11.50;99.90;;;;;;5088772;28;20195;-65
2022/04/16 10:28:05;;;;;;;3.55;3.25;;;11.60;99.90;;;;;;5090112;28;20164;-65
2022/04/16 10:30:39;;;;;;;3.75;3.45;;;11.70;99.90;;;;;;5089908;28;20167;-65
2022/04/16 10:33:19;;;;;;;3.28;3.08;;;11.80;99.90;;;;;;5090016;28;20174;-65
2022/04/16 10:35:54;;;;;;;3.40;3.20;;;11.80;99.90;;;;;;5089780;28;20164;-65
2022/04/16 10:38:36;;;;;;;3.50;3.30;;;11.80;99.90;;;;;;5089828;28;20169;-65
2022/04/16 10:41:14;;;;;;;3.78;3.47;;;11.70;99.90;;;;;;5089875;28;20175;-65
2022/04/16 10:43:40;;;;;;;2.80;2.60;;;11.80;99.90;;;;;;5089905;28;20309;-65
2022/04/16 10:46:08;;;;;;;2.53;2.40;;;11.80;99.90;;;;;;5089519;28;20303;-65
2022/04/16 10:48:38;;;;;;;3.22;2.55;;;11.90;99.90;;;;;;5089716;28;20502;-65
2022/04/16 10:51:05;;;;;;;2.53;2.42;;;11.80;99.90;;;;;;5089688;28;20530;-65
2022/04/16 10:53:38;;;;;;;3.17;2.88;;;11.80;99.90;;;;;;5089677;28;20246;-65
2022/04/16 10:56:14;;;;;;;2.95;2.60;;;11.90;99.90;;;;;;5089569;28;20160;-65
2022/04/16 10:58:46;;;;;;;2.17;2.08;;;12.00;99.90;;;;;;5075547;28;20176;-65
2022/04/16 11:01:22;;;;;;;2.35;2.25;;;12.00;99.90;;;;;;5075974;28;20275;-65
2022/04/16 11:03:49;;;;;;;3.00;2.80;;;12.10;99.90;;;;;;5075956;28;20172;-65
2022/04/16 11:06:16;;;;;;;3.20;2.60;;;12.20;99.90;;;;;;5075836;28;20668;-65
2022/04/16 11:08:45;;;;;;;2.65;2.53;;;12.30;99.90;;;;;;5075873;28;20642;-65
2022/04/16 11:11:13;;;;;;;5.13;2.58;;;12.30;99.90;;;;;;5075815;28;20644;-65
2022/04/16 11:13:40;;;;;;;2.70;2.50;;;12.40;99.90;;;;;;5074451;28;20645;-65
2022/04/16 11:16:06;;;;;;;3.55;3.15;;;12.50;99.90;;;;;;5075597;28;20203;-65
2022/04/16 11:18:44;;;;;;;2.72;2.63;;;12.70;99.90;;;;;;5074404;28;20521;-65
2022/04/16 11:21:12;;;;;;;2.78;2.67;;;12.70;99.90;;;;;;5075644;28;20172;-65
2022/04/16 11:23:45;;;;;;;2.70;2.58;;;12.80;99.90;;;;;;5075532;28;20254;-66
2022/04/16 11:34:28;;;;;;;2.38;2.13;;;13.00;99.90;;;;;;5075649;28;20175;-65
2022/04/16 11:36:53;;;;;;;2.70;2.58;;;13.10;99.90;;;;;;5075320;28;20172;-65
2022/04/16 11:39:25;;;;;;;2.58;2.38;;;13.00;99.90;;;;;;5075303;28;20184;-65
2022/04/16 11:41:51;;;;;;;2.45;2.35;;;13.10;99.90;;;;;;5075274;28;20171;-65
2022/04/16 11:44:28;;;;;;;2.17;2.08;;;13.20;99.90;;;;;;5075139;28;20239;-65
2022/04/16 11:46:53;;;;;;;2.88;2.78;;;13.20;99.90;;;;;;5074949;28;20569;-65
2022/04/16 11:49:19;;;;;;;2.22;2.13;;;13.40;99.90;;;;;;5075074;28;20172;-65
2022/04/16 11:51:45;;;;;;;2.83;2.63;;;13.50;99.90;;;;;;5075037;28;20164;-65
2022/04/16 11:54:11;;;;;;;2.55;2.35;;;13.50;99.90;;;;;;5074888;28;20189;-66
2022/04/16 11:56:38;;;;;;;2.60;2.38;;;13.70;99.90;;;;;;5074728;28;20200;-64
2022/04/16 11:59:03;;;;;;;3.00;2.70;;;13.80;99.90;;;;;;5074797;28;20164;-64
2022/04/16 12:01:29;;;;;;;2.63;2.53;;;14.00;99.90;;;;;;5074822;28;20184;-64
2022/04/16 12:04:05;;;;;;;2.90;2.70;;;14.00;99.90;;;;;;5074823;28;20164;-64
2022/04/16 12:06:35;;;;;;;4.28;2.97;;;14.10;99.90;;;;;;5074702;28;20199;-64
2022/04/16 12:09:01;;;;;;;2.10;2.00;;;14.20;99.90;;;;;;5073762;28;20171;-64
2022/04/16 12:11:27;;;;;;;2.92;2.75;;;14.50;99.90;;;;;;5074631;28;20172;-64
2022/04/16 12:13:58;;;;;;;3.15;2.78;;;14.70;99.90;;;;;;5074697;28;20217;-66
2022/04/16 12:16:34;;;;;;;3.53;2.60;;;14.80;99.90;;;;;;5074653;28;20233;-64
2022/04/16 12:19:01;;;;;;;3.58;2.40;;;14.90;99.90;;;;;;5074513;28;20179;-64
2022/04/16 12:21:27;;;;;;;3.13;2.92;;;15.10;99.90;;;;;;5074496;28;20176;-64
2022/04/16 12:23:52;;;;;;;2.13;2.03;;;15.20;99.90;;;;;;5074288;28;20237;-64
2022/04/16 12:26:18;;;;;;;2.42;2.33;;;15.40;99.90;;;;;;5074338;28;20196;-64
2022/04/16 12:28:51;;;;;;;2.58;2.38;;;15.50;99.90;;;;;;5074341;28;20164;-63
2022/04/16 12:31:29;;;;;;;2.53;2.28;;;15.50;99.90;;;;;;5074354;28;20644;-64
2022/04/16 12:33:55;;;;;;;3.03;2.63;;;15.60;99.90;;;;;;5074211;28;20164;-64
2022/04/16 12:36:21;;;;;;;3.25;2.95;;;15.60;99.90;;;;;;5074108;28;20175;-64
2022/04/16 12:38:46;;;;;;;2.88;2.67;;;15.70;99.90;;;;;;5074115;28;20155;-64
2022/04/16 12:41:12;;;;;;;3.10;2.63;;;15.70;99.90;;;;;;5074111;28;20187;-64
2022/04/16 12:43:38;;;;;;;3.47;3.25;;;15.70;99.90;;;;;;5074029;28;20259;-64
2022/04/16 12:46:04;;;;;;;3.35;3.05;;;15.80;99.90;;;;;;5073804;28;20250;-64
2022/04/16 12:48:30;;;;;;;3.63;3.05;;;15.80;99.90;;;;;;5073977;28;20608;-64
2022/04/16 12:50:56;;;;;;;2.90;2.67;;;16.00;99.90;;;;;;5073793;28;20202;-64
2022/04/16 12:53:21;;;;;;;2.67;2.47;;;16.10;99.90;;;;;;5073835;28;20168;-64
2022/04/16 12:55:47;;;;;;;2.88;2.72;;;16.10;99.90;;;;;;5073818;28;20653;-64
2022/04/16 12:58:12;;;;;;;2.33;2.22;;;16.40;99.90;;;;;;5073724;28;20183;-64
2022/04/16 13:00:39;;;;;;;2.55;2.35;;;16.60;99.90;;;;;;5073645;28;20184;-64
2022/04/16 13:03:06;;;;;;;2.72;2.53;;;16.90;99.90;;;;;;5073667;28;20172;-64
2022/04/16 13:05:32;;;;;;;2.70;2.53;;;16.80;99.90;;;;;;5073552;28;20188;-64
2022/04/16 13:07:59;;;;;;;3.97;2.45;;;16.80;99.90;;;;;;5073547;28;20179;-64
2022/04/16 13:10:26;;;;;;;2.47;2.35;;;16.80;99.90;;;;;;5073652;28;20164;-64
2022/04/16 13:12:52;;;;;;;3.22;2.15;;;17.00;99.90;;;;;;5073613;28;20164;-64
2022/04/16 13:15:18;;;;;;;2.10;2.00;;;16.90;99.90;;;;;;5073577;28;20183;-64
2022/04/16 13:17:44;;;;;;;3.88;2.40;;;17.10;99.90;;;;;;5072228;28;20168;-64
2022/04/16 13:20:12;;;;;;;2.03;1.92;;;17.10;99.90;;;;;;5073179;28;20174;-63
2022/04/16 13:22:38;;;;;;;2.20;2.10;;;17.30;99.90;;;;;;5073387;28;20586;-64
2022/04/16 13:25:05;;;;;;;3.70;2.15;;;17.50;99.90;;;;;;5073167;28;20618;-63
2022/04/16 13:27:31;;;;;;;1.92;1.92;;;17.60;99.90;;;;;;5073169;28;20536;-64
2022/04/16 13:29:56;;;;;;;2.53;2.33;;;17.60;99.90;;;;;;5073299;28;20247;-62
2022/04/16 13:32:22;;;;;;;2.40;2.20;;;17.60;99.90;;;;;;5073171;28;20251;-62
2022/04/16 13:34:47;;;;;;;3.20;2.30;;;17.80;99.90;;;;;;5073121;28;20203;-62
2022/04/16 13:37:13;;;;;;;5.50;2.03;;;18.10;99.90;;;;;;5073129;28;20187;-62
2022/04/16 13:42:24;;;;;;;2.40;2.30;;;18.40;99.90;;;;;;5073236;28;20679;-62
2022/04/16 13:44:50;;;;;;;5.97;2.03;;;18.50;99.90;;;;;;5071654;28;20184;-62
2022/04/16 13:47:20;;;;;;;2.08;1.98;;;18.70;99.90;;;;;;5072994;28;20206;-63
2022/04/16 13:49:47;;;;;;;1.85;1.75;;;18.60;99.90;;;;;;5073064;28;20164;-63
2022/04/16 13:52:13;;;;;;;2.22;2.10;;;18.70;99.90;;;;;;5072993;28;20171;-62
2022/04/16 13:54:38;;;;;;;1.70;1.65;;;18.70;99.90;;;;;;5072973;28;20175;-62
2022/04/16 13:57:05;;;;;;;3.25;2.00;;;18.50;99.90;;;;;;5072993;28;20176;-62
2022/04/16 13:59:30;;;;;;;5.65;1.92;;;18.50;99.90;;;;;;5071870;28;20167;-62
2022/04/16 14:01:57;;;;;;;1.73;1.73;;;18.50;99.90;;;;;;5072890;28;20708;-63
2022/04/16 14:04:23;;;;;;;3.15;2.03;;;18.50;99.90;;;;;;5071624;28;20178;-63
2022/04/16 14:06:49;;;;;;;2.10;1.90;;;18.50;99.90;;;;;;5072974;28;20282;-63
2022/04/16 14:09:15;;;;;;;1.55;1.50;;;18.60;99.90;;;;;;5071674;28;20198;-62
2022/04/16 14:11:41;;;;;;;1.55;1.50;;;18.40;99.90;;;;;;5073174;28;20164;-62
2022/04/16 14:14:08;;;;;;;1.73;1.60;;;18.40;99.90;;;;;;5071741;28;20172;-62
2022/04/16 14:16:34;;;;;;;1.90;1.73;;;18.60;99.90;;;;;;5072848;28;20172;-63
2022/04/16 14:19:00;;;;;;;1.55;1.40;;;18.90;99.90;;;;;;5072859;28;20168;-62
2022/04/16 14:21:27;;;;;;;2.05;1.63;;;19.20;99.90;;;;;;5072863;28;20203;-62
2022/04/16 14:23:53;;;;;;;2.33;2.22;;;19.00;99.90;;;;;;5072821;28;20179;-63
2022/04/16 14:26:19;;;;;;;1.63;1.52;;;19.20;99.90;;;;;;5072608;28;20192;-63
2022/04/16 14:28:44;;;;;;;1.90;1.52;;;19.30;99.90;;;;;;5072703;28;20180;-63
2022/04/16 14:31:10;;;;;;;2.28;1.60;;;19.30;99.90;;;;;;5072720;28;20581;-63
2022/04/16 14:33:38;;;;;;;1.80;1.70;;;19.60;99.90;;;;;;5075527;28;20172;-63
2022/04/16 14:36:05;;;;;;;1.60;1.50;;;19.50;99.40;;;;;;5076569;28;20621;-63
2022/04/16 14:38:32;;;;;;;1.70;1.60;;;19.30;96.70;;;;;;5075204;28;20180;-63
2022/04/16 14:41:09;;;;;;;1.42;1.30;;;19.40;97.80;;;;;;5075134;28;20214;-63
2022/04/16 14:43:47;;;;;;;1.52;1.50;;;19.50;93.00;;;;;;5076329;28;20530;-63
2022/04/16 14:46:14;;;;;;;1.52;1.42;;;19.70;93.90;;;;;;5075973;28;20231;-63
2022/04/16 14:48:39;;;;;;;2.78;1.40;;;19.90;92.40;;;;;;5076239;28;20172;-63
2022/04/16 14:51:05;;;;;;;1.45;1.38;;;20.00;90.30;;;;;;5076192;28;20711;-63
2022/04/16 14:53:31;;;;;;;1.73;1.63;;;20.00;90.50;;;;;;5076190;28;20172;-63
2022/04/16 14:55:57;;;;;;;1.75;1.70;;;20.20;92.20;;;;;;5076011;28;20160;-62
2022/04/16 14:58:23;;;;;;;1.60;1.48;;;20.20;88.70;;;;;;5074792;28;20530;-63
2022/04/16 15:00:49;;;;;;;1.10;1.10;;;20.10;90.40;;;;;;5075950;28;20529;-63
2022/04/16 15:03:15;;;;;;;1.40;1.30;;;20.30;79.60;;;;;;5076117;28;20172;-63
2022/04/16 15:05:40;;;;;;;0.82;0.82;;;20.20;67.40;;;;;;5075869;28;20247;-63
2022/04/16 15:08:07;;;;;;;1.20;1.10;;;20.30;67.50;;;;;;5075891;28;20164;-63
2022/04/16 15:10:33;;;;;;;0.90;0.90;;;20.50;64.70;;;;;;5075769;28;20191;-63
2022/04/16 15:12:58;;;;;;;1.67;1.58;;;20.70;62.90;;;;;;5075863;28;20223;-63
2022/04/16 15:15:24;;;;;;;0.90;0.90;;;20.80;59.60;;;;;;5075809;28;20176;-63
2022/04/16 15:17:49;;;;;;;2.15;1.13;;;20.90;58.00;;;;;;5075633;28;20620;-63
2022/04/16 15:20:19;;;;;;;1.00;1.00;;;20.90;58.90;;;;;;5075667;28;20297;-63
2022/04/16 15:22:45;;;;;;;1.30;1.23;;;20.90;59.60;;;;;;5075617;28;20171;-63
2022/04/16 15:25:11;;;;;;;1.00;1.00;;;20.90;58.40;;;;;;5075450;28;20174;-63
2022/04/16 15:27:37;;;;;;;0.90;0.90;;;20.80;56.90;;;;;;5075514;28;20168;-66
2022/04/16 15:30:04;;;;;;;0.95;0.95;;;20.90;57.60;;;;;;5075532;28;20685;-66
2022/04/16 15:32:29;;;;;;;1.80;1.00;;;21.00;56.40;;;;;;5075235;28;20632;-66
2022/04/16 15:34:55;;;;;;;1.27;0.95;;;20.90;57.40;;;;;;5074524;28;20182;-66
2022/04/16 15:37:25;;;;;;;1.40;1.10;;;20.90;54.40;;;;;;5075810;28;20168;-67
2022/04/16 15:39:54;;;;;;;2.35;1.05;;;20.90;57.60;;;;;;5075402;28;20279;-67
2022/04/16 15:42:19;;;;;;;1.10;1.10;;;21.00;55.10;;;;;;5075320;28;20255;-67
2022/04/16 15:44:45;;;;;;;2.13;0.90;;;20.90;56.30;;;;;;5075158;28;20255;-67
2022/04/16 15:47:12;;;;;;;1.17;1.15;;;20.50;54.20;;;;;;5075070;28;20295;-67
2022/04/16 15:49:38;;;;;;;1.10;1.10;;;20.20;56.70;;;;;;5075160;28;20202;-67
2022/04/16 15:52:04;;;;;;;1.00;1.00;;;20.20;57.70;;;;;;5075162;28;20171;-67
2022/04/16 15:54:30;;;;;;;2.45;1.10;;;20.30;57.70;;;;;;5075105;28;20629;-67
2022/04/16 15:56:55;;;;;;;1.20;1.20;;;20.30;56.90;;;;;;5075097;28;20220;-67
2022/04/16 15:59:21;;;;;;;2.17;2.08;;;20.40;57.30;;;;;;5074931;28;20303;-67
2022/04/16 16:01:46;;;;;;;2.08;1.10;;;20.60;58.20;;;;;;5073533;28;20212;-67
2022/04/16 16:06:56;;;;;;;1.08;1.08;;;20.60;56.50;;;;;;5074737;28;20202;-67
2022/04/16 16:09:21;;;;;;;1.17;1.17;;;20.60;56.60;;;;;;5074769;28;20159;-67
2022/04/16 16:11:47;;;;;;;0.95;0.95;;;20.60;57.70;;;;;;5074699;28;20168;-67
2022/04/16 16:14:12;;;;;;;1.20;1.20;;;20.70;58.50;;;;;;5074616;28;20243;-67
2022/04/16 16:16:38;;;;;;;1.00;1.00;;;20.80;56.50;;;;;;5074586;28;20533;-67
2022/04/16 16:19:04;;;;;;;1.42;1.05;;;20.70;56.60;;;;;;5074631;28;20575;-67
2022/04/16 16:21:30;;;;;;;1.85;1.75;;;20.70;56.70;;;;;;5073150;28;20264;-67
2022/04/16 16:23:55;;;;;;;3.60;0.93;;;20.60;56.30;;;;;;5074424;28;20199;-67
2022/04/16 16:26:21;;;;;;;1.38;1.38;;;20.50;55.70;;;;;;5074532;28;20282;-67
2022/04/16 16:28:46;;;;;;;1.50;1.40;;;20.30;57.00;;;;;;5074296;28;20204;-67
2022/04/16 16:31:12;;;;;;;1.35;1.25;;;20.10;55.80;;;;;;5074338;28;20164;-67
2022/04/16 16:33:38;;;;;;;1.98;1.35;;;19.90;56.60;;;;;;5074298;28;20167;-67
2022/04/16 16:36:04;;;;;;;1.48;1.38;;;19.70;56.80;;;;;;5074181;28;20192;-67
2022/04/16 16:38:29;;;;;;;1.77;1.40;;;19.60;55.70;;;;;;5074050;28;20219;-67
2022/04/16 16:40:55;;;;;;;1.95;1.20;;;19.50;56.40;;;;;;5074097;28;20171;-67
2022/04/16 16:43:22;;;;;;;1.45;1.27;;;19.50;57.10;;;;;;5074130;28;20193;-67
2022/04/16 16:45:47;;;;;;;1.13;1.13;;;19.40;58.10;;;;;;5073800;28;20761;-67
2022/04/16 16:48:13;;;;;;;1.20;1.10;;;19.50;58.50;;;;;;5074078;28;20171;-67
2022/04/16 16:50:39;;;;;;;1.10;1.10;;;19.40;57.50;;;;;;5073851;28;20168;-67
2022/04/16 16:53:05;;;;;;;1.13;1.13;;;19.30;59.20;;;;;;5073891;28;20164;-67
2022/04/16 16:55:30;;;;;;;3.05;1.10;;;19.20;58.00;;;;;;5073368;28;20198;-67
2022/04/16 16:57:57;;;;;;;1.35;1.30;;;18.90;59.50;;;;;;5073797;28;20279;-67
2022/04/16 17:00:23;;;;;;;1.25;1.25;;;18.90;58.40;;;;;;5073842;28;20535;-67
2022/04/16 17:05:33;;;;;;;1.52;1.42;;;19.00;59.80;;;;;;5073679;28;20206;-67
2022/04/16 17:07:59;;;;;;;1.40;1.30;;;19.10;58.30;;;;;;5073586;28;20164;-67
2022/04/16 17:10:25;;;;;;;1.50;1.40;;;19.10;57.40;;;;;;5073651;28;20168;-67
2022/04/16 17:12:52;;;;;;;4.03;1.40;;;19.10;57.70;;;;;;5073620;28;20648;-67
2022/04/16 17:20:46;;;;;;;1.40;1.30;;;19.10;58.80;;;;;;5073175;28;20210;-67
2022/04/16 17:23:12;;;;;;;1.30;1.30;;;18.90;59.40;;;;;;5071969;28;20168;-67
2022/04/16 17:25:38;;;;;;;1.50;1.40;;;18.80;59.10;;;;;;5073240;28;20206;-67
2022/04/16 17:28:04;;;;;;;3.03;1.20;;;18.80;59.60;;;;;;5073163;28;20168;-67
2022/04/16 17:30:29;;;;;;;1.20;1.20;;;18.60;60.40;;;;;;5073335;28;20175;-67
2022/04/16 17:32:55;;;;;;;1.48;1.48;;;18.40;61.10;;;;;;5073375;28;20241;-67
2022/04/16 17:35:21;;;;;;;1.33;1.23;;;18.10;60.70;;;;;;5073296;28;20156;-67
2022/04/16 17:37:54;;;;;;;1.45;1.45;;;17.90;60.20;;;;;;5073319;28;20163;-67
2022/04/16 17:40:20;;;;;;;2.70;2.50;;;17.70;61.00;;;;;;5073209;28;20192;-67
2022/04/16 17:42:46;;;;;;;3.47;2.70;;;17.70;61.80;;;;;;5073254;28;20168;-67
2022/04/16 17:45:14;;;;;;;2.55;2.42;;;17.50;63.70;;;;;;5072791;28;20175;-67
2022/04/16 17:47:40;;;;;;;1.80;1.70;;;17.30;62.20;;;;;;5073135;28;20193;-67
2022/04/16 17:50:06;;;;;;;3.42;1.77;;;17.20;62.10;;;;;;5072989;28;20163;-67
2022/04/16 17:52:32;;;;;;;2.33;1.98;;;16.90;62.50;;;;;;5073091;28;20570;-67
2022/04/16 17:54:58;;;;;;;1.70;1.60;;;16.80;64.70;;;;;;5072984;28;20198;-67
2022/04/16 17:57:23;;;;;;;2.45;2.25;;;16.60;65.60;;;;;;5072916;28;20172;-67
2022/04/16 17:59:49;;;;;;;3.38;2.05;;;16.50;65.90;;;;;;5072979;28;20183;-67
2022/04/16 18:02:15;;;;;;;2.20;2.00;;;16.30;65.90;;;;;;5072986;28;20233;-67
2022/04/16 18:04:41;;;;;;;1.80;1.70;;;16.10;65.90;;;;;;5073028;28;20176;-67
2022/04/16 18:07:08;;;;;;;2.28;2.10;;;15.80;66.00;;;;;;5073568;28;20203;-67
2022/04/16 18:09:34;;;;;;;1.90;1.80;;;15.60;65.30;;;;;;5075925;28;20168;-67
2022/04/16 18:12:00;;;;;;;3.22;2.95;;;15.40;65.50;;;;;;5076906;28;20683;-67
2022/04/16 18:14:25;;;;;;;2.58;1.95;;;15.30;68.90;;;;;;5075560;28;20642;-67
2022/04/16 18:16:51;;;;;;;2.20;2.10;;;15.20;68.10;;;;;;5076696;28;20168;-67
2022/04/16 18:19:17;;;;;;;3.88;1.77;;;14.80;69.40;;;;;;5076777;28;20169;-67
2022/04/16 18:21:43;;;;;;;2.40;2.30;;;14.70;69.60;;;;;;5076727;28;20238;-67
2022/04/16 18:24:09;;;;;;;2.97;2.78;;;14.50;67.70;;;;;;5076557;28;20168;-67
2022/04/16 18:26:36;;;;;;;2.72;2.53;;;14.30;69.80;;;;;;5076391;28;20554;-67
2022/04/16 18:29:04;;;;;;;2.55;2.45;;;14.10;68.60;;;;;;5076570;28;20527;-67
2022/04/16 18:31:30;;;;;;;2.85;2.65;;;13.80;70.10;;;;;;5076481;28;20171;-67
